sensor_id;sensor_type;location;lat;lon;timestamp;temperature;humidity
52107;DHT22;38105;52.968;5.974;2023-03-26T00:00:37;7.50;99.90
52107;DHT22;38105;52.968;5.974;2023-03-26T00:03:05;7.30;99.90
52107;DHT22;38105;52.968;5.974;2023-03-26T00:05:31;7.40;99.90
52107;DHT22;38105;52.968;5.974;2023-03-26T00:07:57;7.50;99.90
52107;DHT22;38105;52.968;5.974;2023-03-26T00:10:23;7.20;99.90
52107;DHT22;38105;52.968;5.974;2023-03-26T00:12:50;7.30;99.90
52107;DHT22;38105;52.968;5.974;2023-03-26T00:15:16;7.20;99.90
52107;DHT22;38105;52.968;5.974;2023-03-26T00:17:42;7.10;99.90
52107;DHT22;38105;52.968;5.974;2023-03-26T00:20:12;7.10;99.90
52107;DHT22;38105;52.968;5.974;2023-03-26T00:22:38;7.00;99.90
52107;DHT22;38105;52.968;5.974;2023-03-26T00:25:05;7.00;99.90
52107;DHT22;38105;52.968;5.974;2023-03-26T00:27:32;7.00;99.90
52107;DHT22;38105;52.968;5.974;2023-03-26T00:29:59;7.10;99.90
52107;DHT22;38105;52.968;5.974;2023-03-26T00:32:26;7.00;99.90
52107;DHT22;38105;52.968;5.974;2023-03-26T00:34:53;6.90;99.90
52107;DHT22;38105;52.968;5.974;2023-03-26T00:37:21;7.00;99.90
52107;DHT22;38105;52.968;5.974;2023-03-26T00:39:55;6.90;99.90
52107;DHT22;38105;52.968;5.974;2023-03-26T00:42:29;6.90;99.90
52107;DHT22;38105;52.968;5.974;2023-03-26T00:44:54;6.90;99.90
52107;DHT22;38105;52.968;5.974;2023-03-26T00:47:27;6.90;99.90
52107;DHT22;38105;52.968;5.974;2023-03-26T00:49:53;7.00;99.90
52107;DHT22;38105;52.968;5.974;2023-03-26T00:52:19;7.00;99.90
52107;DHT22;38105;52.968;5.974;2023-03-26T00:54:45;7.00;99.90
52107;DHT22;38105;52.968;5.974;2023-03-26T00:57:11;7.00;99.90
52107;DHT22;38105;52.968;5.974;2023-03-26T00:59:40;6.90;99.90
52107;DHT22;38105;52.968;5.974;2023-03-26T01:02:11;6.80;99.90
52107;DHT22;38105;52.968;5.974;2023-03-26T01:04:38;7.00;99.90
52107;DHT22;38105;52.968;5.974;2023-03-26T01:07:09;7.20;99.90
52107;DHT22;38105;52.968;5.974;2023-03-26T01:09:39;7.10;99.90
52107;DHT22;38105;52.968;5.974;2023-03-26T01:12:13;7.00;99.90
52107;DHT22;38105;52.968;5.974;2023-03-26T01:14:43;7.00;99.90
52107;DHT22;38105;52.968;5.974;2023-03-26T01:17:09;7.00;99.90
52107;DHT22;38105;52.968;5.974;2023-03-26T01:22:18;7.10;99.90
52107;DHT22;38105;52.968;5.974;2023-03-26T01:24:44;7.10;99.90
52107;DHT22;38105;52.968;5.974;2023-03-26T01:30:33;7.10;99.90
52107;DHT22;38105;52.968;5.974;2023-03-26T01:33:23;7.10;99.90
52107;DHT22;38105;52.968;5.974;2023-03-26T01:36:38;6.90;99.90
52107;DHT22;38105;52.968;5.974;2023-03-26T01:39:23;7.00;99.90
52107;DHT22;38105;52.968;5.974;2023-03-26T01:41:54;6.90;99.90
52107;DHT22;38105;52.968;5.974;2023-03-26T01:44:41;6.90;99.90
52107;DHT22;38105;52.968;5.974;2023-03-26T01:47:09;6.80;99.90
52107;DHT22;38105;52.968;5.974;2023-03-26T01:49:36;6.80;99.90
52107;DHT22;38105;52.968;5.974;2023-03-26T01:52:01;6.60;99.90
52107;DHT22;38105;52.968;5.974;2023-03-26T01:54:28;6.70;99.90
52107;DHT22;38105;52.968;5.974;2023-03-26T01:57:35;6.80;99.90
52107;DHT22;38105;52.968;5.974;2023-03-26T02:05:42;6.80;99.90
52107;DHT22;38105;52.968;5.974;2023-03-26T02:08:31;6.60;99.90
52107;DHT22;38105;52.968;5.974;2023-03-26T02:11:12;6.60;99.90
52107;DHT22;38105;52.968;5.974;2023-03-26T02:13:44;6.80;99.90
52107;DHT22;38105;52.968;5.974;2023-03-26T02:16:13;6.60;99.90
52107;DHT22;38105;52.968;5.974;2023-03-26T02:18:41;6.60;99.90
52107;DHT22;38105;52.968;5.974;2023-03-26T02:21:14;6.70;99.90
52107;DHT22;38105;52.968;5.974;2023-03-26T02:23:43;6.50;99.90
52107;DHT22;38105;52.968;5.974;2023-03-26T02:26:14;6.50;99.90
52107;DHT22;38105;52.968;5.974;2023-03-26T02:28:40;6.50;99.90
52107;DHT22;38105;52.968;5.974;2023-03-26T02:31:06;6.50;99.90
52107;DHT22;38105;52.968;5.974;2023-03-26T02:33:35;6.60;99.90
52107;DHT22;38105;52.968;5.974;2023-03-26T02:36:01;6.50;99.90
52107;DHT22;38105;52.968;5.974;2023-03-26T02:38:29;6.50;99.90
52107;DHT22;38105;52.968;5.974;2023-03-26T02:40:58;6.70;99.90
52107;DHT22;38105;52.968;5.974;2023-03-26T02:43:24;6.40;99.90
52107;DHT22;38105;52.968;5.974;2023-03-26T02:45:50;6.50;99.90
52107;DHT22;38105;52.968;5.974;2023-03-26T02:48:16;6.40;99.90
52107;DHT22;38105;52.968;5.974;2023-03-26T02:50:42;6.40;99.90
52107;DHT22;38105;52.968;5.974;2023-03-26T02:53:08;6.30;99.90
52107;DHT22;38105;52.968;5.974;2023-03-26T02:55:34;6.40;99.90
52107;DHT22;38105;52.968;5.974;2023-03-26T02:58:00;6.50;99.90
52107;DHT22;38105;52.968;5.974;2023-03-26T03:00:25;6.50;99.90
52107;DHT22;38105;52.968;5.974;2023-03-26T03:02:51;6.40;99.90
52107;DHT22;38105;52.968;5.974;2023-03-26T03:05:18;6.30;99.90
52107;DHT22;38105;52.968;5.974;2023-03-26T03:07:45;6.20;99.90
52107;DHT22;38105;52.968;5.974;2023-03-26T03:10:12;6.20;99.90
52107;DHT22;38105;52.968;5.974;2023-03-26T03:12:41;6.20;99.90
52107;DHT22;38105;52.968;5.974;2023-03-26T03:15:08;6.10;99.90
52107;DHT22;38105;52.968;5.974;2023-03-26T03:17:33;6.30;99.90
52107;DHT22;38105;52.968;5.974;2023-03-26T03:19:59;6.20;99.90
52107;DHT22;38105;52.968;5.974;2023-03-26T03:22:25;6.20;99.90
52107;DHT22;38105;52.968;5.974;2023-03-26T03:24:51;6.10;99.90
52107;DHT22;38105;52.968;5.974;2023-03-26T03:27:17;6.30;99.90
52107;DHT22;38105;52.968;5.974;2023-03-26T03:29:48;6.20;99.90
52107;DHT22;38105;52.968;5.974;2023-03-26T03:32:13;6.30;99.90
52107;DHT22;38105;52.968;5.974;2023-03-26T03:34:39;6.30;99.90
52107;DHT22;38105;52.968;5.974;2023-03-26T03:37:06;6.40;99.90
52107;DHT22;38105;52.968;5.974;2023-03-26T03:39:32;6.30;99.90
52107;DHT22;38105;52.968;5.974;2023-03-26T03:41:58;6.40;99.90
52107;DHT22;38105;52.968;5.974;2023-03-26T03:44:23;6.30;99.90
52107;DHT22;38105;52.968;5.974;2023-03-26T03:46:49;6.30;99.90
52107;DHT22;38105;52.968;5.974;2023-03-26T03:49:18;6.40;99.90
52107;DHT22;38105;52.968;5.974;2023-03-26T03:51:44;6.30;99.90
52107;DHT22;38105;52.968;5.974;2023-03-26T03:54:09;6.30;99.90
52107;DHT22;38105;52.968;5.974;2023-03-26T03:56:35;6.40;99.90
52107;DHT22;38105;52.968;5.974;2023-03-26T03:59:02;6.20;99.90
52107;DHT22;38105;52.968;5.974;2023-03-26T04:01:28;6.10;99.90
52107;DHT22;38105;52.968;5.974;2023-03-26T04:03:55;6.20;99.90
52107;DHT22;38105;52.968;5.974;2023-03-26T04:06:21;6.00;99.90
52107;DHT22;38105;52.968;5.974;2023-03-26T04:08:50;5.90;99.90
52107;DHT22;38105;52.968;5.974;2023-03-26T04:11:16;6.00;99.90
52107;DHT22;38105;52.968;5.974;2023-03-26T04:13:42;6.10;99.90
52107;DHT22;38105;52.968;5.974;2023-03-26T04:16:08;6.30;99.90
52107;DHT22;38105;52.968;5.974;2023-03-26T04:18:34;6.10;99.90
52107;DHT22;38105;52.968;5.974;2023-03-26T04:21:02;6.10;99.90
52107;DHT22;38105;52.968;5.974;2023-03-26T04:23:30;6.30;99.90
52107;DHT22;38105;52.968;5.974;2023-03-26T04:25:57;6.20;99.90
52107;DHT22;38105;52.968;5.974;2023-03-26T04:28:31;6.30;99.90
52107;DHT22;38105;52.968;5.974;2023-03-26T04:30:58;6.10;99.90
52107;DHT22;38105;52.968;5.974;2023-03-26T04:33:33;6.40;99.90
52107;DHT22;38105;52.968;5.974;2023-03-26T04:35:59;6.40;99.90
52107;DHT22;38105;52.968;5.974;2023-03-26T04:38:40;6.20;99.90
52107;DHT22;38105;52.968;5.974;2023-03-26T04:41:10;6.40;99.90
52107;DHT22;38105;52.968;5.974;2023-03-26T04:43:36;6.30;99.90
52107;DHT22;38105;52.968;5.974;2023-03-26T04:46:07;6.30;99.90
52107;DHT22;38105;52.968;5.974;2023-03-26T04:48:35;6.30;99.90
52107;DHT22;38105;52.968;5.974;2023-03-26T04:51:03;6.20;99.90
52107;DHT22;38105;52.968;5.974;2023-03-26T04:53:31;6.40;99.90
52107;DHT22;38105;52.968;5.974;2023-03-26T04:56:08;6.20;99.90
52107;DHT22;38105;52.968;5.974;2023-03-26T04:58:36;6.20;99.90
52107;DHT22;38105;52.968;5.974;2023-03-26T05:01:02;6.50;99.90
52107;DHT22;38105;52.968;5.974;2023-03-26T05:03:29;6.30;99.90
52107;DHT22;38105;52.968;5.974;2023-03-26T05:05:59;6.20;99.90
52107;DHT22;38105;52.968;5.974;2023-03-26T05:08:25;6.40;99.90
52107;DHT22;38105;52.968;5.974;2023-03-26T05:10:53;6.40;99.90
52107;DHT22;38105;52.968;5.974;2023-03-26T05:13:20;6.40;99.90
52107;DHT22;38105;52.968;5.974;2023-03-26T05:15:46;6.30;99.90
52107;DHT22;38105;52.968;5.974;2023-03-26T05:18:11;6.40;99.90
52107;DHT22;38105;52.968;5.974;2023-03-26T05:20:37;6.40;99.90
52107;DHT22;38105;52.968;5.974;2023-03-26T05:23:03;6.40;99.90
52107;DHT22;38105;52.968;5.974;2023-03-26T05:25:29;6.30;99.90
52107;DHT22;38105;52.968;5.974;2023-03-26T05:27:54;6.40;99.90
52107;DHT22;38105;52.968;5.974;2023-03-26T05:30:21;6.40;99.90
52107;DHT22;38105;52.968;5.974;2023-03-26T05:32:47;6.20;99.90
52107;DHT22;38105;52.968;5.974;2023-03-26T05:35:14;6.50;99.90
52107;DHT22;38105;52.968;5.974;2023-03-26T05:37:44;6.20;99.90
52107;DHT22;38105;52.968;5.974;2023-03-26T05:40:11;6.20;99.90
52107;DHT22;38105;52.968;5.974;2023-03-26T05:42:39;6.50;99.90
52107;DHT22;38105;52.968;5.974;2023-03-26T05:45:07;6.50;99.90
52107;DHT22;38105;52.968;5.974;2023-03-26T05:47:33;6.30;99.90
52107;DHT22;38105;52.968;5.974;2023-03-26T05:49:59;6.50;99.90
52107;DHT22;38105;52.968;5.974;2023-03-26T05:52:25;6.40;99.90
52107;DHT22;38105;52.968;5.974;2023-03-26T05:54:50;6.30;99.90
52107;DHT22;38105;52.968;5.974;2023-03-26T05:57:16;6.30;99.90
52107;DHT22;38105;52.968;5.974;2023-03-26T05:59:43;6.40;99.90
52107;DHT22;38105;52.968;5.974;2023-03-26T06:02:09;6.40;99.90
52107;DHT22;38105;52.968;5.974;2023-03-26T06:04:35;6.50;99.90
52107;DHT22;38105;52.968;5.974;2023-03-26T06:07:08;6.60;99.90
52107;DHT22;38105;52.968;5.974;2023-03-26T06:09:38;6.60;99.90
52107;DHT22;38105;52.968;5.974;2023-03-26T06:12:06;6.60;99.90
52107;DHT22;38105;52.968;5.974;2023-03-26T06:14:31;6.50;99.90
52107;DHT22;38105;52.968;5.974;2023-03-26T06:16:57;6.40;99.90
52107;DHT22;38105;52.968;5.974;2023-03-26T06:19:23;6.40;99.90
52107;DHT22;38105;52.968;5.974;2023-03-26T06:21:48;6.60;99.90
52107;DHT22;38105;52.968;5.974;2023-03-26T06:24:14;6.60;99.90
52107;DHT22;38105;52.968;5.974;2023-03-26T06:26:41;6.60;99.90
52107;DHT22;38105;52.968;5.974;2023-03-26T06:29:07;6.60;99.90
52107;DHT22;38105;52.968;5.974;2023-03-26T06:31:33;6.60;99.90
52107;DHT22;38105;52.968;5.974;2023-03-26T06:33:59;6.80;99.90
52107;DHT22;38105;52.968;5.974;2023-03-26T06:36:25;6.80;99.90
52107;DHT22;38105;52.968;5.974;2023-03-26T06:38:51;6.90;99.90
52107;DHT22;38105;52.968;5.974;2023-03-26T06:41:17;6.80;99.90
52107;DHT22;38105;52.968;5.974;2023-03-26T06:43:42;6.90;99.90
52107;DHT22;38105;52.968;5.974;2023-03-26T06:46:09;6.90;99.90
52107;DHT22;38105;52.968;5.974;2023-03-26T06:48:35;6.90;99.90
52107;DHT22;38105;52.968;5.974;2023-03-26T06:51:00;6.90;99.90
52107;DHT22;38105;52.968;5.974;2023-03-26T06:53:26;6.90;99.90
52107;DHT22;38105;52.968;5.974;2023-03-26T06:55:52;6.90;99.90
52107;DHT22;38105;52.968;5.974;2023-03-26T06:58:19;6.90;99.90
52107;DHT22;38105;52.968;5.974;2023-03-26T07:00:45;7.00;99.90
52107;DHT22;38105;52.968;5.974;2023-03-26T07:03:10;7.00;99.90
52107;DHT22;38105;52.968;5.974;2023-03-26T07:05:37;7.20;99.90
52107;DHT22;38105;52.968;5.974;2023-03-26T07:08:03;7.20;99.90
52107;DHT22;38105;52.968;5.974;2023-03-26T07:10:28;7.40;99.90
52107;DHT22;38105;52.968;5.974;2023-03-26T07:12:54;7.50;99.90
52107;DHT22;38105;52.968;5.974;2023-03-26T07:15:20;7.60;99.90
52107;DHT22;38105;52.968;5.974;2023-03-26T07:17:46;7.70;99.90
52107;DHT22;38105;52.968;5.974;2023-03-26T07:20:11;7.90;99.90
52107;DHT22;38105;52.968;5.974;2023-03-26T07:22:37;8.00;99.90
52107;DHT22;38105;52.968;5.974;2023-03-26T07:25:04;8.20;99.90
52107;DHT22;38105;52.968;5.974;2023-03-26T07:41:07;9.30;99.90
52107;DHT22;38105;52.968;5.974;2023-03-26T07:46:03;11.10;99.90
52107;DHT22;38105;52.968;5.974;2023-03-26T07:48:42;11.50;99.90
52107;DHT22;38105;52.968;5.974;2023-03-26T07:51:09;12.00;99.90
52107;DHT22;38105;52.968;5.974;2023-03-26T07:53:35;13.00;99.90
52107;DHT22;38105;52.968;5.974;2023-03-26T07:56:16;14.00;99.90
52107;DHT22;38105;52.968;5.974;2023-03-26T08:07:04;15.80;99.90
52107;DHT22;38105;52.968;5.974;2023-03-26T08:09:34;15.70;99.90
52107;DHT22;38105;52.968;5.974;2023-03-26T08:17:41;12.20;99.90
52107;DHT22;38105;52.968;5.974;2023-03-26T08:22:41;11.10;99.90
52107;DHT22;38105;52.968;5.974;2023-03-26T08:30:41;10.10;99.90
52107;DHT22;38105;52.968;5.974;2023-03-26T08:35:36;11.50;99.90
52107;DHT22;38105;52.968;5.974;2023-03-26T08:38:08;11.90;99.90
52107;DHT22;38105;52.968;5.974;2023-03-26T08:43:45;12.00;99.90
52107;DHT22;38105;52.968;5.974;2023-03-26T08:49:22;11.40;99.90
52107;DHT22;38105;52.968;5.974;2023-03-26T08:52:20;11.40;99.90
52107;DHT22;38105;52.968;5.974;2023-03-26T09:01:08;10.60;99.90
52107;DHT22;38105;52.968;5.974;2023-03-26T09:30:56;9.70;99.90
52107;DHT22;38105;52.968;5.974;2023-03-26T09:33:52;9.70;99.90
52107;DHT22;38105;52.968;5.974;2023-03-26T09:36:32;9.80;99.90
52107;DHT22;38105;52.968;5.974;2023-03-26T09:39:16;9.90;99.90
52107;DHT22;38105;52.968;5.974;2023-03-26T09:42:20;10.00;99.90
52107;DHT22;38105;52.968;5.974;2023-03-26T09:45:02;10.00;99.90
52107;DHT22;38105;52.968;5.974;2023-03-26T09:47:39;10.10;99.90
52107;DHT22;38105;52.968;5.974;2023-03-26T09:56:03;10.30;99.90
52107;DHT22;38105;52.968;5.974;2023-03-26T10:10:00;10.50;99.90
52107;DHT22;38105;52.968;5.974;2023-03-26T10:12:51;10.50;99.90
52107;DHT22;38105;52.968;5.974;2023-03-26T10:15:31;10.40;99.90
52107;DHT22;38105;52.968;5.974;2023-03-26T10:18:32;10.30;99.90
52107;DHT22;38105;52.968;5.974;2023-03-26T10:24:03;10.30;99.90
52107;DHT22;38105;52.968;5.974;2023-03-26T10:27:01;10.40;99.90
52107;DHT22;38105;52.968;5.974;2023-03-26T10:52:08;9.80;99.90
52107;DHT22;38105;52.968;5.974;2023-03-26T10:57:22;9.90;99.90
52107;DHT22;38105;52.968;5.974;2023-03-26T10:59:53;9.90;99.90
52107;DHT22;38105;52.968;5.974;2023-03-26T11:08:19;10.20;99.90
52107;DHT22;38105;52.968;5.974;2023-03-26T11:10:56;10.30;99.90
52107;DHT22;38105;52.968;5.974;2023-03-26T11:13:34;10.00;99.90
52107;DHT22;38105;52.968;5.974;2023-03-26T11:19:30;10.30;99.90
52107;DHT22;38105;52.968;5.974;2023-03-26T11:22:22;10.40;99.90
52107;DHT22;38105;52.968;5.974;2023-03-26T11:32:48;10.50;99.90
52107;DHT22;38105;52.968;5.974;2023-03-26T11:35:18;10.30;99.90
52107;DHT22;38105;52.968;5.974;2023-03-26T11:37:50;10.30;99.90
52107;DHT22;38105;52.968;5.974;2023-03-26T11:40:26;10.30;99.90
52107;DHT22;38105;52.968;5.974;2023-03-26T11:43:02;10.20;99.90
52107;DHT22;38105;52.968;5.974;2023-03-26T11:45:34;10.10;99.90
52107;DHT22;38105;52.968;5.974;2023-03-26T11:50:32;9.90;99.90
52107;DHT22;38105;52.968;5.974;2023-03-26T11:53:14;9.90;99.90
52107;DHT22;38105;52.968;5.974;2023-03-26T11:58:46;9.80;99.90
52107;DHT22;38105;52.968;5.974;2023-03-26T12:01:40;9.80;99.90
52107;DHT22;38105;52.968;5.974;2023-03-26T12:04:11;9.70;99.90
52107;DHT22;38105;52.968;5.974;2023-03-26T12:06:39;9.70;99.90
52107;DHT22;38105;52.968;5.974;2023-03-26T12:09:18;9.70;99.90
52107;DHT22;38105;52.968;5.974;2023-03-26T12:11:44;9.70;99.90
52107;DHT22;38105;52.968;5.974;2023-03-26T12:14:21;9.70;99.90
52107;DHT22;38105;52.968;5.974;2023-03-26T12:17:03;9.80;99.90
52107;DHT22;38105;52.968;5.974;2023-03-26T12:19:41;9.70;99.90
52107;DHT22;38105;52.968;5.974;2023-03-26T12:22:36;9.70;99.90
52107;DHT22;38105;52.968;5.974;2023-03-26T12:30:18;9.70;99.90
52107;DHT22;38105;52.968;5.974;2023-03-26T12:32:44;9.80;99.90
52107;DHT22;38105;52.968;5.974;2023-03-26T12:35:16;9.80;99.90
52107;DHT22;38105;52.968;5.974;2023-03-26T12:37:46;10.00;99.90
52107;DHT22;38105;52.968;5.974;2023-03-26T12:42:57;10.00;99.90
52107;DHT22;38105;52.968;5.974;2023-03-26T12:45:29;9.80;99.90
52107;DHT22;38105;52.968;5.974;2023-03-26T12:47:56;9.60;99.90
52107;DHT22;38105;52.968;5.974;2023-03-26T12:50:32;9.60;99.90
52107;DHT22;38105;52.968;5.974;2023-03-26T12:53:17;9.50;99.90
52107;DHT22;38105;52.968;5.974;2023-03-26T13:06:48;9.40;99.90
52107;DHT22;38105;52.968;5.974;2023-03-26T13:09:20;9.40;99.90
52107;DHT22;38105;52.968;5.974;2023-03-26T13:14:55;9.40;99.90
52107;DHT22;38105;52.968;5.974;2023-03-26T13:17:33;9.40;99.90
52107;DHT22;38105;52.968;5.974;2023-03-26T13:20:13;9.40;99.90
52107;DHT22;38105;52.968;5.974;2023-03-26T13:29:24;9.30;99.90
52107;DHT22;38105;52.968;5.974;2023-03-26T13:37:24;9.30;99.90
52107;DHT22;38105;52.968;5.974;2023-03-26T13:40:16;9.30;99.90
52107;DHT22;38105;52.968;5.974;2023-03-26T13:48:14;9.00;99.90
52107;DHT22;38105;52.968;5.974;2023-03-26T13:50:43;9.00;99.90
52107;DHT22;38105;52.968;5.974;2023-03-26T13:53:21;9.10;99.90
52107;DHT22;38105;52.968;5.974;2023-03-26T13:55:55;9.10;99.90
52107;DHT22;38105;52.968;5.974;2023-03-26T13:58:34;9.10;99.90
52107;DHT22;38105;52.968;5.974;2023-03-26T14:01:18;9.20;99.90
52107;DHT22;38105;52.968;5.974;2023-03-26T14:03:58;9.20;99.90
52107;DHT22;38105;52.968;5.974;2023-03-26T14:09:27;9.20;99.90
52107;DHT22;38105;52.968;5.974;2023-03-26T14:15:02;9.20;99.90
52107;DHT22;38105;52.968;5.974;2023-03-26T14:17:43;9.00;99.90
52107;DHT22;38105;52.968;5.974;2023-03-26T14:23:21;8.90;99.90
52107;DHT22;38105;52.968;5.974;2023-03-26T14:51:44;8.60;99.90
52107;DHT22;38105;52.968;5.974;2023-03-26T14:54:17;8.60;99.90
52107;DHT22;38105;52.968;5.974;2023-03-26T14:59:55;9.10;99.90
52107;DHT22;38105;52.968;5.974;2023-03-26T15:05:52;9.00;99.90
52107;DHT22;38105;52.968;5.974;2023-03-26T15:20:03;8.10;99.90
52107;DHT22;38105;52.968;5.974;2023-03-26T15:23:16;8.20;99.90
52107;DHT22;38105;52.968;5.974;2023-03-26T15:26:20;8.10;99.90
52107;DHT22;38105;52.968;5.974;2023-03-26T15:29:07;8.20;99.90
52107;DHT22;38105;52.968;5.974;2023-03-26T15:37:54;8.40;99.90
52107;DHT22;38105;52.968;5.974;2023-03-26T15:43:10;8.10;99.90
52107;DHT22;38105;52.968;5.974;2023-03-26T15:45:48;8.00;99.90
52107;DHT22;38105;52.968;5.974;2023-03-26T15:48:35;7.80;99.90
52107;DHT22;38105;52.968;5.974;2023-03-26T15:51:48;7.80;99.90
52107;DHT22;38105;52.968;5.974;2023-03-26T15:54:29;7.90;99.90
52107;DHT22;38105;52.968;5.974;2023-03-26T16:02:45;8.30;99.90
52107;DHT22;38105;52.968;5.974;2023-03-26T16:10:34;8.00;99.90
52107;DHT22;38105;52.968;5.974;2023-03-26T16:18:47;7.90;99.90
52107;DHT22;38105;52.968;5.974;2023-03-26T16:21:37;8.00;99.90
52107;DHT22;38105;52.968;5.974;2023-03-26T16:29:19;7.90;99.90
52107;DHT22;38105;52.968;5.974;2023-03-26T16:42:52;7.60;99.90
52107;DHT22;38105;52.968;5.974;2023-03-26T16:45:32;7.60;99.90
52107;DHT22;38105;52.968;5.974;2023-03-26T16:48:20;7.40;99.90
52107;DHT22;38105;52.968;5.974;2023-03-26T16:50:55;7.40;99.90
52107;DHT22;38105;52.968;5.974;2023-03-26T16:53:52;7.40;99.90
52107;DHT22;38105;52.968;5.974;2023-03-26T16:56:36;7.40;99.90
52107;DHT22;38105;52.968;5.974;2023-03-26T16:59:49;7.40;99.90
52107;DHT22;38105;52.968;5.974;2023-03-26T17:02:28;7.30;99.90
52107;DHT22;38105;52.968;5.974;2023-03-26T17:05:30;7.10;99.90
52107;DHT22;38105;52.968;5.974;2023-03-26T17:08:20;7.10;99.90
52107;DHT22;38105;52.968;5.974;2023-03-26T17:14:23;6.80;99.90
52107;DHT22;38105;52.968;5.974;2023-03-26T17:17:45;6.70;99.90
52107;DHT22;38105;52.968;5.974;2023-03-26T17:23:02;6.60;99.90
52107;DHT22;38105;52.968;5.974;2023-03-26T17:28:27;6.60;99.90
52107;DHT22;38105;52.968;5.974;2023-03-26T17:31:19;6.60;99.90
52107;DHT22;38105;52.968;5.974;2023-03-26T17:33:48;6.50;99.90
52107;DHT22;38105;52.968;5.974;2023-03-26T17:36:19;6.50;99.90
52107;DHT22;38105;52.968;5.974;2023-03-26T17:41:46;6.40;99.90
52107;DHT22;38105;52.968;5.974;2023-03-26T17:43:59;6.40;99.90
52107;DHT22;38105;52.968;5.974;2023-03-26T17:46:38;6.30;99.90
52107;DHT22;38105;52.968;5.974;2023-03-26T17:51:55;6.20;99.90
52107;DHT22;38105;52.968;5.974;2023-03-26T17:54:48;6.20;99.90
52107;DHT22;38105;52.968;5.974;2023-03-26T17:57:21;6.20;99.90
52107;DHT22;38105;52.968;5.974;2023-03-26T17:59:52;6.10;99.90
52107;DHT22;38105;52.968;5.974;2023-03-26T18:02:25;6.10;99.90
52107;DHT22;38105;52.968;5.974;2023-03-26T18:04:53;6.00;99.90
52107;DHT22;38105;52.968;5.974;2023-03-26T18:21:31;5.90;99.90
52107;DHT22;38105;52.968;5.974;2023-03-26T18:23:58;5.90;99.90
52107;DHT22;38105;52.968;5.974;2023-03-26T18:29:18;5.80;99.90
52107;DHT22;38105;52.968;5.974;2023-03-26T18:31:47;5.70;99.90
52107;DHT22;38105;52.968;5.974;2023-03-26T18:34:17;5.60;99.90
52107;DHT22;38105;52.968;5.974;2023-03-26T18:37:08;5.50;99.90
52107;DHT22;38105;52.968;5.974;2023-03-26T18:40:04;5.50;99.90
52107;DHT22;38105;52.968;5.974;2023-03-26T18:42:43;5.40;99.90
52107;DHT22;38105;52.968;5.974;2023-03-26T18:47:50;5.20;99.90
52107;DHT22;38105;52.968;5.974;2023-03-26T18:50:22;5.10;99.90
52107;DHT22;38105;52.968;5.974;2023-03-26T18:52:49;5.10;99.90
52107;DHT22;38105;52.968;5.974;2023-03-26T18:55:15;5.00;99.90
52107;DHT22;38105;52.968;5.974;2023-03-26T18:57:42;5.00;99.90
52107;DHT22;38105;52.968;5.974;2023-03-26T19:00:17;4.90;99.90
52107;DHT22;38105;52.968;5.974;2023-03-26T19:02:46;4.80;99.90
52107;DHT22;38105;52.968;5.974;2023-03-26T19:05:15;4.80;99.90
52107;DHT22;38105;52.968;5.974;2023-03-26T19:07:42;4.80;99.90
52107;DHT22;38105;52.968;5.974;2023-03-26T19:10:16;4.80;99.90
52107;DHT22;38105;52.968;5.974;2023-03-26T19:12:56;4.70;99.90
52107;DHT22;38105;52.968;5.974;2023-03-26T19:15:24;4.80;99.90
52107;DHT22;38105;52.968;5.974;2023-03-26T19:17:58;4.70;99.90
52107;DHT22;38105;52.968;5.974;2023-03-26T19:20:36;4.70;99.90
52107;DHT22;38105;52.968;5.974;2023-03-26T19:23:03;4.80;99.90
52107;DHT22;38105;52.968;5.974;2023-03-26T19:25:49;4.70;99.90
52107;DHT22;38105;52.968;5.974;2023-03-26T19:28:24;4.60;99.90
52107;DHT22;38105;52.968;5.974;2023-03-26T19:30:58;4.50;99.90
52107;DHT22;38105;52.968;5.974;2023-03-26T19:33:36;4.50;99.90
52107;DHT22;38105;52.968;5.974;2023-03-26T19:38:42;4.40;99.90
52107;DHT22;38105;52.968;5.974;2023-03-26T19:41:19;4.30;99.90
52107;DHT22;38105;52.968;5.974;2023-03-26T19:43:51;4.30;99.90
52107;DHT22;38105;52.968;5.974;2023-03-26T19:46:20;4.20;99.90
52107;DHT22;38105;52.968;5.974;2023-03-26T19:48:49;4.20;99.90
52107;DHT22;38105;52.968;5.974;2023-03-26T19:51:36;4.20;99.90
52107;DHT22;38105;52.968;5.974;2023-03-26T19:54:11;4.20;99.90
52107;DHT22;38105;52.968;5.974;2023-03-26T19:56:38;4.10;99.90
52107;DHT22;38105;52.968;5.974;2023-03-26T19:59:04;4.10;99.90
52107;DHT22;38105;52.968;5.974;2023-03-26T20:01:30;4.00;99.90
52107;DHT22;38105;52.968;5.974;2023-03-26T20:04:04;4.10;99.90
52107;DHT22;38105;52.968;5.974;2023-03-26T20:06:31;4.00;99.90
52107;DHT22;38105;52.968;5.974;2023-03-26T20:08:58;4.00;99.90
52107;DHT22;38105;52.968;5.974;2023-03-26T20:11:31;4.00;99.90
52107;DHT22;38105;52.968;5.974;2023-03-26T20:13:59;4.00;99.90
52107;DHT22;38105;52.968;5.974;2023-03-26T20:16:30;3.90;99.90
52107;DHT22;38105;52.968;5.974;2023-03-26T20:18:58;4.00;99.90
52107;DHT22;38105;52.968;5.974;2023-03-26T20:21:30;3.90;99.90
52107;DHT22;38105;52.968;5.974;2023-03-26T20:24:13;3.80;99.90
52107;DHT22;38105;52.968;5.974;2023-03-26T20:26:40;4.10;99.90
52107;DHT22;38105;52.968;5.974;2023-03-26T20:29:06;3.90;99.90
52107;DHT22;38105;52.968;5.974;2023-03-26T20:31:31;3.80;99.90
52107;DHT22;38105;52.968;5.974;2023-03-26T20:33:57;3.80;99.90
52107;DHT22;38105;52.968;5.974;2023-03-26T20:36:24;3.80;99.90
52107;DHT22;38105;52.968;5.974;2023-03-26T20:38:51;3.80;99.90
52107;DHT22;38105;52.968;5.974;2023-03-26T20:41:20;3.80;99.90
52107;DHT22;38105;52.968;5.974;2023-03-26T20:43:48;3.70;99.90
52107;DHT22;38105;52.968;5.974;2023-03-26T20:46:21;3.70;99.90
52107;DHT22;38105;52.968;5.974;2023-03-26T20:48:47;3.70;99.90
52107;DHT22;38105;52.968;5.974;2023-03-26T20:51:13;3.80;99.90
52107;DHT22;38105;52.968;5.974;2023-03-26T20:53:40;3.70;99.90
52107;DHT22;38105;52.968;5.974;2023-03-26T20:56:14;3.80;99.90
52107;DHT22;38105;52.968;5.974;2023-03-26T20:58:42;3.70;99.90
52107;DHT22;38105;52.968;5.974;2023-03-26T21:01:10;3.70;99.90
52107;DHT22;38105;52.968;5.974;2023-03-26T21:03:36;3.70;99.90
52107;DHT22;38105;52.968;5.974;2023-03-26T21:06:04;3.70;99.90
52107;DHT22;38105;52.968;5.974;2023-03-26T21:08:30;3.60;99.90
52107;DHT22;38105;52.968;5.974;2023-03-26T21:11:00;3.70;99.90
52107;DHT22;38105;52.968;5.974;2023-03-26T21:13:40;3.70;99.90
52107;DHT22;38105;52.968;5.974;2023-03-26T21:16:09;3.80;99.90
52107;DHT22;38105;52.968;5.974;2023-03-26T21:18:35;3.70;99.90
52107;DHT22;38105;52.968;5.974;2023-03-26T21:29:32;3.80;99.90
52107;DHT22;38105;52.968;5.974;2023-03-26T21:31:58;3.70;99.90
52107;DHT22;38105;52.968;5.974;2023-03-26T21:34:24;3.90;99.90
52107;DHT22;38105;52.968;5.974;2023-03-26T21:36:52;3.80;99.90
52107;DHT22;38105;52.968;5.974;2023-03-26T21:39:18;3.80;99.90
52107;DHT22;38105;52.968;5.974;2023-03-26T21:41:47;3.90;99.90
52107;DHT22;38105;52.968;5.974;2023-03-26T21:44:13;3.70;99.90
52107;DHT22;38105;52.968;5.974;2023-03-26T21:46:43;3.80;99.90
52107;DHT22;38105;52.968;5.974;2023-03-26T21:49:11;3.90;99.90
52107;DHT22;38105;52.968;5.974;2023-03-26T21:51:37;3.80;99.90
52107;DHT22;38105;52.968;5.974;2023-03-26T21:54:26;3.80;99.90